createdAt,value
2023-03-29T00:01:07.627Z,96753.81
2023-03-29T00:03:34.428Z,96758.97
2023-03-29T00:06:01.237Z,96743.41
2023-03-29T00:08:27.822Z,96747.19
2023-03-29T00:10:57.103Z,96765.97
2023-03-29T00:13:23.681Z,96766.38
2023-03-29T00:15:50.673Z,96781.19
2023-03-29T00:18:18.232Z,96777.63
2023-03-29T00:20:44.775Z,96775.66
2023-03-29T00:23:11.689Z,96765.88
2023-03-29T00:25:38.484Z,96767.97
2023-03-29T00:28:04.955Z,96771.03
2023-03-29T00:30:32.428Z,96770.25
2023-03-29T00:32:59.250Z,96760.88
2023-03-29T00:35:27.611Z,96766.06
2023-03-29T00:37:54.904Z,96769.44
2023-03-29T00:40:23.888Z,96756.19
2023-03-29T00:42:50.737Z,96757.28
2023-03-29T00:45:17.620Z,96743.56
2023-03-29T00:47:44.503Z,96746.41
2023-03-29T00:50:11.366Z,96740.69
2023-03-29T00:52:38.246Z,96744.50
2023-03-29T00:55:04.763Z,96723.69
2023-03-29T00:57:31.944Z,96737.22
2023-03-29T00:59:59.519Z,96736.28
2023-03-29T01:02:26.166Z,96734.94
2023-03-29T01:04:52.640Z,96729.75
2023-03-29T01:07:19.425Z,96726.00
2023-03-29T01:09:46.927Z,96710.44
2023-03-29T01:12:13.535Z,96721.97
2023-03-29T01:14:40.365Z,96713.19
2023-03-29T01:17:07.168Z,96697.34
2023-03-29T01:19:33.756Z,96713.88
2023-03-29T01:22:00.666Z,96698.22
2023-03-29T01:24:29.687Z,96701.09
2023-03-29T01:29:41.885Z,96712.47
2023-03-29T01:32:08.800Z,96702.72
2023-03-29T01:34:35.618Z,96702.84
2023-03-29T01:37:02.415Z,96703.25
2023-03-29T01:39:29.988Z,96701.03
2023-03-29T01:41:56.732Z,96697.88
2023-03-29T01:44:23.290Z,96694.56
2023-03-29T01:46:50.087Z,96701.13
2023-03-29T01:49:16.667Z,96698.84
2023-03-29T01:51:45.078Z,96710.44
2023-03-29T01:54:11.649Z,96741.50
2023-03-29T01:56:38.481Z,96756.44
2023-03-29T01:59:05.279Z,96745.09
2023-03-29T02:01:41.543Z,96739.59
2023-03-29T02:04:08.423Z,96736.56
2023-03-29T02:06:34.957Z,96735.66
2023-03-29T02:09:07.891Z,96736.25
2023-03-29T02:11:35.489Z,96705.56
2023-03-29T02:16:33.864Z,96707.78
2023-03-29T02:19:00.413Z,96708.38
2023-03-29T02:21:28.250Z,96715.22
2023-03-29T02:23:55.234Z,96711.53
2023-03-29T02:26:23.242Z,96716.72
2023-03-29T02:28:52.353Z,96727.06
2023-03-29T02:31:19.240Z,96716.97
2023-03-29T02:33:45.861Z,96700.94
2023-03-29T02:36:12.669Z,96718.59
2023-03-29T02:38:40.063Z,96738.41
2023-03-29T02:41:06.996Z,96731.22
2023-03-29T02:46:23.768Z,96726.19
2023-03-29T02:48:53.172Z,96735.84
2023-03-29T02:51:20.922Z,96723.88
2023-03-29T02:53:48.522Z,96717.69
2023-03-29T02:56:16.096Z,96704.78
2023-03-29T02:58:43.664Z,96728.72
2023-03-29T03:01:10.529Z,96746.56
2023-03-29T03:03:37.267Z,96734.41
2023-03-29T03:06:04.029Z,96729.88
2023-03-29T03:08:30.727Z,96714.66
2023-03-29T03:10:57.596Z,96707.91
2023-03-29T03:13:24.436Z,96715.78
2023-03-29T03:15:51.045Z,96710.16
2023-03-29T03:18:17.679Z,96690.94
2023-03-29T03:20:44.758Z,96696.16
2023-03-29T03:23:15.545Z,96702.50
2023-03-29T03:25:42.374Z,96719.13
2023-03-29T03:28:11.327Z,96713.66
2023-03-29T03:30:38.466Z,96717.38
2023-03-29T03:33:05.396Z,96773.56
2023-03-29T03:35:35.169Z,96755.50
2023-03-29T03:38:02.471Z,96739.66
2023-03-29T03:40:29.021Z,96733.56
2023-03-29T03:42:56.196Z,96713.84
2023-03-29T03:45:22.921Z,96695.88
2023-03-29T03:47:50.707Z,96681.59
2023-03-29T03:50:17.354Z,96681.34
2023-03-29T03:52:43.995Z,96681.41
2023-03-29T03:55:10.876Z,96692.22
2023-03-29T03:57:37.708Z,96698.78
2023-03-29T04:00:06.748Z,96698.84
2023-03-29T04:02:33.481Z,96683.81
2023-03-29T04:05:01.068Z,96683.00
2023-03-29T04:07:31.708Z,96693.88
2023-03-29T04:10:00.882Z,96691.63
2023-03-29T04:12:27.731Z,96682.00
2023-03-29T04:14:54.521Z,96686.69
2023-03-29T04:17:21.074Z,96685.47
2023-03-29T04:19:49.377Z,96697.69
2023-03-29T04:22:20.126Z,96694.19
2023-03-29T04:24:46.822Z,96689.84
2023-03-29T04:27:14.029Z,96697.16
2023-03-29T04:29:40.780Z,96697.38
2023-03-29T04:32:07.588Z,96688.84
2023-03-29T04:34:34.473Z,96692.94
2023-03-29T04:37:03.499Z,96694.09
2023-03-29T04:39:31.008Z,96681.03
2023-03-29T04:44:48.257Z,96686.75
2023-03-29T04:47:15.751Z,96683.50
2023-03-29T04:49:44.797Z,96684.25
2023-03-29T04:52:12.695Z,96689.78
2023-03-29T04:54:39.876Z,96681.41
2023-03-29T04:57:06.825Z,96680.72
2023-03-29T04:59:33.677Z,96689.06
2023-03-29T05:02:00.641Z,96684.41
2023-03-29T05:04:28.317Z,96687.75
2023-03-29T05:06:54.893Z,96688.13
2023-03-29T05:09:21.478Z,96681.41
2023-03-29T05:11:48.324Z,96671.00
2023-03-29T05:14:15.337Z,96673.34
2023-03-29T05:16:44.382Z,96669.47
2023-03-29T05:19:11.303Z,96670.75
2023-03-29T05:21:38.112Z,96664.22
2023-03-29T05:24:07.086Z,96667.88
2023-03-29T05:26:34.403Z,96669.38
2023-03-29T05:35:03.487Z,96672.94
2023-03-29T05:37:31.484Z,96680.59
2023-03-29T05:40:06.133Z,96678.47
2023-03-29T05:42:33.258Z,96674.53
2023-03-29T05:45:00.499Z,96665.50
2023-03-29T05:47:29.113Z,96673.56
2023-03-29T05:49:58.033Z,96677.09
2023-03-29T05:52:25.009Z,96683.53
2023-03-29T05:54:59.110Z,96686.84
2023-03-29T05:57:40.002Z,96686.06
2023-03-29T06:00:14.497Z,96696.72
2023-03-29T06:02:42.057Z,96697.41
2023-03-29T06:05:08.948Z,96685.06
2023-03-29T06:07:35.768Z,96702.53
2023-03-29T06:10:04.115Z,96699.25
2023-03-29T06:12:30.995Z,96694.81
2023-03-29T06:15:01.129Z,96696.09
2023-03-29T06:17:27.836Z,96695.22
2023-03-29T06:19:56.700Z,96702.13
2023-03-29T06:22:28.970Z,96698.72
2023-03-29T06:24:55.594Z,96703.84
2023-03-29T06:27:30.017Z,96715.03
2023-03-29T06:29:57.866Z,96714.63
2023-03-29T06:32:25.553Z,96712.66
2023-03-29T06:34:54.625Z,96704.47
2023-03-29T06:37:29.020Z,96712.72
2023-03-29T06:39:58.127Z,96721.84
2023-03-29T06:42:25.045Z,96721.09
2023-03-29T06:44:52.656Z,96727.16
2023-03-29T06:47:21.805Z,96724.91
2023-03-29T06:49:50.479Z,96716.44
2023-03-29T06:52:17.290Z,96717.66
2023-03-29T06:54:48.508Z,96725.34
2023-03-29T06:57:17.010Z,96726.59
2023-03-29T06:59:52.134Z,96731.06
2023-03-29T07:02:19.005Z,96718.56
2023-03-29T07:04:47.797Z,96715.00
2023-03-29T07:07:14.901Z,96723.22
2023-03-29T07:09:41.825Z,96719.97
2023-03-29T07:12:10.275Z,96721.75
2023-03-29T07:14:41.692Z,96732.91
2023-03-29T07:17:08.869Z,96734.25
2023-03-29T07:19:36.696Z,96749.94
2023-03-29T07:22:04.412Z,96742.84
2023-03-29T07:24:33.830Z,96757.53
2023-03-29T07:27:04.414Z,96761.09
2023-03-29T07:29:31.514Z,96762.94
2023-03-29T07:31:58.737Z,96747.84
2023-03-29T07:34:25.301Z,96764.41
2023-03-29T07:36:52.398Z,96759.34
2023-03-29T07:39:19.429Z,96760.13
2023-03-29T07:41:46.685Z,96763.28
2023-03-29T07:44:20.692Z,96758.63
2023-03-29T07:46:49.361Z,96764.63
2023-03-29T07:49:23.411Z,96759.22
2023-03-29T07:51:50.293Z,96753.81
2023-03-29T07:54:17.180Z,96756.38
2023-03-29T07:56:44.007Z,96754.34
2023-03-29T07:59:10.916Z,96756.47
2023-03-29T08:01:45.042Z,96755.50
2023-03-29T08:06:52.764Z,96761.84
2023-03-29T08:09:20.350Z,96757.22
2023-03-29T08:11:49.095Z,96757.97
2023-03-29T08:14:23.127Z,96763.16
2023-03-29T08:16:57.325Z,96774.69
2023-03-29T08:19:25.462Z,96778.69
2023-03-29T08:21:52.968Z,96782.34
2023-03-29T08:24:21.010Z,96785.72
2023-03-29T08:26:48.723Z,96784.66
2023-03-29T08:29:21.437Z,96788.66
2023-03-29T08:31:48.462Z,96778.78
2023-03-29T08:34:16.014Z,96774.78
2023-03-29T08:36:44.792Z,96775.44
2023-03-29T08:39:11.683Z,96764.69
2023-03-29T08:41:42.257Z,96779.50
2023-03-29T08:44:12.591Z,96772.94
2023-03-29T08:46:39.734Z,96762.16
2023-03-29T08:49:07.363Z,96768.00
2023-03-29T08:51:34.944Z,96768.44
2023-03-29T08:54:03.765Z,96773.09
2023-03-29T08:56:32.835Z,96777.78
2023-03-29T08:59:03.916Z,96768.50
2023-03-29T09:01:31.563Z,96776.47
2023-03-29T09:03:58.582Z,96777.06
2023-03-29T09:06:26.892Z,96777.75
2023-03-29T09:08:55.234Z,96764.97
2023-03-29T09:11:23.434Z,96764.75
2023-03-29T09:13:51.049Z,96761.69
2023-03-29T09:16:25.018Z,96769.31
2023-03-29T09:18:51.637Z,96770.13
2023-03-29T09:21:18.392Z,96761.16
2023-03-29T09:23:45.756Z,96773.41
2023-03-29T09:26:13.367Z,96771.56
2023-03-29T09:28:40.173Z,96770.69
2023-03-29T09:31:06.949Z,96773.22
2023-03-29T09:33:34.624Z,96768.03
2023-03-29T09:36:02.182Z,96763.84
2023-03-29T09:38:29.792Z,96766.16
2023-03-29T09:40:59.113Z,96767.84
2023-03-29T09:43:28.225Z,96771.25
2023-03-29T09:45:56.816Z,96770.38
2023-03-29T09:48:23.416Z,96778.44
2023-03-29T09:50:52.361Z,96770.19
2023-03-29T09:53:27.776Z,96767.41
2023-03-29T09:55:56.361Z,96775.75
2023-03-29T09:58:23.855Z,96771.41
2023-03-29T10:00:50.860Z,96774.06
2023-03-29T10:03:17.823Z,96766.75
2023-03-29T10:05:44.570Z,96758.53
2023-03-29T10:08:14.441Z,96756.84
2023-03-29T10:10:41.824Z,96755.72
2023-03-29T10:13:09.196Z,96765.84
2023-03-29T10:15:37.982Z,96760.44
2023-03-29T10:18:04.878Z,96760.91
2023-03-29T10:20:32.047Z,96765.09
2023-03-29T10:22:59.361Z,96757.81
2023-03-29T10:25:26.018Z,96755.38
2023-03-29T10:27:54.043Z,96757.31
2023-03-29T10:30:23.812Z,96756.28
2023-03-29T10:32:52.075Z,96748.84
2023-03-29T10:35:26.162Z,96753.28
2023-03-29T10:37:54.860Z,96761.56
2023-03-29T10:40:21.600Z,96756.31
2023-03-29T10:42:48.558Z,96748.94
2023-03-29T10:45:15.142Z,96744.66
2023-03-29T10:47:42.519Z,96760.94
2023-03-29T10:50:09.289Z,96762.09
2023-03-29T10:52:36.100Z,96765.56
2023-03-29T10:55:03.983Z,96765.03
2023-03-29T10:57:31.653Z,96726.94
2023-03-29T11:02:38.905Z,96752.09
2023-03-29T11:05:05.654Z,96754.00
2023-03-29T11:07:32.665Z,96748.91
2023-03-29T11:09:59.328Z,96727.25
2023-03-29T11:12:26.080Z,96724.09
2023-03-29T11:14:53.005Z,96722.63
2023-03-29T11:17:21.958Z,96740.16
2023-03-29T11:19:48.855Z,96750.28
2023-03-29T11:22:15.668Z,96737.63
2023-03-29T11:24:44.563Z,96731.63
2023-03-29T11:27:11.981Z,96728.94
2023-03-29T11:29:39.037Z,96728.81
2023-03-29T11:32:05.551Z,96730.13
2023-03-29T11:34:32.133Z,96739.91
2023-03-29T11:37:00.816Z,96741.16
2023-03-29T11:39:27.432Z,96732.44
2023-03-29T11:41:54.420Z,96727.78
2023-03-29T11:44:21.914Z,96731.31
2023-03-29T11:46:48.877Z,96723.97
2023-03-29T11:49:15.600Z,96729.28
2023-03-29T11:51:42.417Z,96739.25
2023-03-29T11:54:09.859Z,96738.22
2023-03-29T11:56:37.732Z,96735.63
2023-03-29T11:59:04.501Z,96744.09
2023-03-29T12:01:30.938Z,96742.66
2023-03-29T12:04:00.055Z,96727.47
2023-03-29T12:06:26.994Z,96716.00
2023-03-29T12:08:53.948Z,96691.50
2023-03-29T12:11:22.493Z,96683.13
2023-03-29T12:13:52.247Z,96693.78
2023-03-29T12:16:19.389Z,96709.31
2023-03-29T12:18:46.318Z,96699.91
2023-03-29T12:21:13.464Z,96686.81
2023-03-29T12:23:40.689Z,96673.41
2023-03-29T12:26:09.027Z,96669.91
2023-03-29T12:28:43.123Z,96681.84
2023-03-29T12:31:09.769Z,96676.50
2023-03-29T12:33:36.396Z,96675.34
2023-03-29T12:36:04.500Z,96673.44
2023-03-29T12:38:31.222Z,96676.72
2023-03-29T12:41:05.563Z,96674.41
2023-03-29T12:43:33.725Z,96677.44
2023-03-29T12:46:00.343Z,96679.69
2023-03-29T12:48:30.192Z,96672.88
2023-03-29T12:50:57.067Z,96668.69
2023-03-29T12:53:24.766Z,96673.50
2023-03-29T12:55:55.797Z,96663.09
2023-03-29T12:58:22.771Z,96670.59
2023-03-29T13:00:50.133Z,96668.63
2023-03-29T13:03:18.779Z,96667.34
2023-03-29T13:05:49.295Z,96666.34
2023-03-29T13:08:18.313Z,96658.00
2023-03-29T13:10:45.172Z,96661.69
2023-03-29T13:13:12.657Z,96669.22
2023-03-29T13:15:39.576Z,96666.63
2023-03-29T13:18:08.150Z,96656.25
2023-03-29T13:20:41.596Z,96640.22
2023-03-29T13:23:09.217Z,96643.16
2023-03-29T13:25:35.811Z,96640.41
2023-03-29T13:28:03.209Z,96639.34
2023-03-29T13:30:32.839Z,96632.50
2023-03-29T13:33:00.382Z,96623.19
2023-03-29T13:35:33.984Z,96617.56
2023-03-29T13:38:01.352Z,96617.31
2023-03-29T13:40:30.110Z,96610.66
2023-03-29T13:45:40.209Z,96615.19
2023-03-29T13:48:07.325Z,96616.19
2023-03-29T13:50:35.576Z,96616.97
2023-03-29T13:53:03.196Z,96616.31
2023-03-29T13:55:32.752Z,96602.13
2023-03-29T13:57:59.835Z,96605.22
2023-03-29T14:00:31.234Z,96601.09
2023-03-29T14:02:58.251Z,96601.81
2023-03-29T14:05:27.605Z,96593.78
2023-03-29T14:07:54.506Z,96587.84
2023-03-29T14:10:24.761Z,96585.41
2023-03-29T14:12:54.351Z,96585.97
2023-03-29T14:15:23.806Z,96580.19
2023-03-29T14:17:50.618Z,96582.91
2023-03-29T14:20:21.107Z,96577.50
2023-03-29T14:22:48.821Z,96576.41
2023-03-29T14:25:15.576Z,96566.88
2023-03-29T14:27:42.360Z,96558.25
2023-03-29T14:30:09.181Z,96563.91
2023-03-29T14:32:39.333Z,96562.34
2023-03-29T14:35:10.499Z,96564.84
2023-03-29T14:37:37.065Z,96562.63
2023-03-29T14:40:04.517Z,96560.38
2023-03-29T14:42:32.180Z,96553.66
2023-03-29T14:45:00.971Z,96553.03
2023-03-29T14:47:30.443Z,96552.63
2023-03-29T14:49:58.108Z,96550.69
2023-03-29T14:52:28.331Z,96548.50
2023-03-29T14:54:55.976Z,96542.66
2023-03-29T14:57:25.778Z,96544.06
2023-03-29T14:59:52.688Z,96538.84
2023-03-29T15:02:21.398Z,96531.00
2023-03-29T15:04:48.954Z,96530.13
2023-03-29T15:07:15.506Z,96531.06
2023-03-29T15:09:42.454Z,96524.28
2023-03-29T15:12:10.738Z,96527.53
2023-03-29T15:14:38.021Z,96521.50
2023-03-29T15:17:06.008Z,96518.91
2023-03-29T15:19:32.792Z,96526.41
2023-03-29T15:22:02.544Z,96518.34
2023-03-29T15:24:30.550Z,96517.81
2023-03-29T15:26:57.140Z,96513.91
2023-03-29T15:29:29.065Z,96508.66
2023-03-29T15:31:59.369Z,96501.78
2023-03-29T15:34:26.085Z,96505.28
2023-03-29T15:36:53.554Z,96501.75
2023-03-29T15:39:20.113Z,96500.53
2023-03-29T15:41:49.557Z,96492.56
2023-03-29T15:44:17.370Z,96494.34
2023-03-29T15:46:43.975Z,96487.13
2023-03-29T15:49:13.041Z,96487.13
2023-03-29T15:51:39.781Z,96480.50
2023-03-29T15:54:06.719Z,96481.19
2023-03-29T15:56:33.548Z,96479.50
2023-03-29T15:59:00.104Z,96474.53
2023-03-29T16:01:27.089Z,96466.31
2023-03-29T16:03:53.995Z,96465.19
2023-03-29T16:06:20.767Z,96469.59
2023-03-29T16:08:47.345Z,96464.22
2023-03-29T16:11:14.745Z,96459.97
2023-03-29T16:13:41.196Z,96457.34
2023-03-29T16:16:08.188Z,96451.13
2023-03-29T16:18:40.333Z,96453.38
2023-03-29T16:21:08.415Z,96451.47
2023-03-29T16:23:35.987Z,96450.59
2023-03-29T16:26:03.046Z,96447.94
2023-03-29T16:28:30.075Z,96450.63
2023-03-29T16:30:56.963Z,96457.38
2023-03-29T16:33:23.794Z,96443.53
2023-03-29T16:35:50.640Z,96444.06
2023-03-29T16:38:17.513Z,96437.13
2023-03-29T16:40:45.130Z,96435.63
2023-03-29T16:43:14.132Z,96426.28
2023-03-29T16:45:41.594Z,96429.25
2023-03-29T16:48:09.321Z,96427.91
2023-03-29T16:50:36.206Z,96429.84
2023-03-29T16:53:03.096Z,96423.13
2023-03-29T16:55:30.546Z,96429.94
2023-03-29T16:57:57.071Z,96428.41
2023-03-29T17:00:25.062Z,96424.88
2023-03-29T17:02:51.881Z,96434.50
2023-03-29T17:05:18.994Z,96421.47
2023-03-29T17:07:47.004Z,96424.09
2023-03-29T17:10:13.629Z,96419.72
2023-03-29T17:12:59.592Z,96417.59
2023-03-29T17:15:37.386Z,96422.88
2023-03-29T17:18:06.154Z,96434.16
2023-03-29T17:20:33.030Z,96434.38
2023-03-29T17:22:59.893Z,96431.75
2023-03-29T17:25:26.697Z,96435.09
2023-03-29T17:27:53.592Z,96431.28
2023-03-29T17:30:20.968Z,96430.28
2023-03-29T17:32:48.416Z,96434.75
2023-03-29T17:35:17.577Z,96430.38
2023-03-29T17:37:44.148Z,96424.22
2023-03-29T17:40:10.630Z,96428.81
2023-03-29T17:42:37.427Z,96420.94
2023-03-29T17:45:05.789Z,96415.56
2023-03-29T17:47:33.611Z,96421.72
2023-03-29T17:50:00.441Z,96418.59
2023-03-29T17:52:26.987Z,96427.94
2023-03-29T17:54:53.603Z,96416.56
2023-03-29T17:57:20.489Z,96420.06
2023-03-29T17:59:48.030Z,96419.25
2023-03-29T18:02:17.131Z,96419.44
2023-03-29T18:04:43.942Z,96418.13
2023-03-29T18:07:10.535Z,96413.72
2023-03-29T18:09:38.045Z,96416.56
2023-03-29T18:12:05.306Z,96417.13
2023-03-29T18:14:32.110Z,96413.94
2023-03-29T18:16:58.763Z,96416.38
2023-03-29T18:19:25.641Z,96422.41
2023-03-29T18:21:52.082Z,96423.19
2023-03-29T18:24:18.974Z,96428.91
2023-03-29T18:26:45.802Z,96446.25
2023-03-29T18:29:14.561Z,96443.75
2023-03-29T18:31:41.354Z,96435.22
2023-03-29T18:34:10.180Z,96423.38
2023-03-29T18:36:38.486Z,96425.94
2023-03-29T18:39:05.097Z,96410.56
2023-03-29T18:41:32.374Z,96414.19
2023-03-29T18:43:58.912Z,96418.81
2023-03-29T18:46:25.402Z,96418.28
2023-03-29T18:48:59.476Z,96423.69
2023-03-29T18:51:28.379Z,96425.91
2023-03-29T18:53:56.892Z,96430.56
2023-03-29T18:56:24.238Z,96430.41
2023-03-29T18:58:50.918Z,96438.19
2023-03-29T19:01:17.751Z,96429.03
2023-03-29T19:03:44.794Z,96440.28
2023-03-29T19:06:14.818Z,96443.63
2023-03-29T19:08:41.585Z,96454.44
2023-03-29T19:11:10.087Z,96456.69
2023-03-29T19:13:37.757Z,96441.28
2023-03-29T19:18:56.937Z,96445.78
2023-03-29T19:21:23.756Z,96441.88
2023-03-29T19:23:50.990Z,96452.13
2023-03-29T19:26:19.743Z,96446.09
2023-03-29T19:28:47.353Z,96456.47
2023-03-29T19:31:16.100Z,96451.69
2023-03-29T19:33:43.438Z,96445.00
2023-03-29T19:36:12.687Z,96447.81
2023-03-29T19:38:39.179Z,96467.50
2023-03-29T19:41:05.712Z,96459.50
2023-03-29T19:43:32.606Z,96450.13
2023-03-29T19:45:59.163Z,96454.91
2023-03-29T19:48:26.205Z,96447.41
2023-03-29T19:50:52.906Z,96445.06
2023-03-29T19:56:09.557Z,96449.22
2023-03-29T19:58:36.510Z,96437.50
2023-03-29T20:01:03.360Z,96435.00
2023-03-29T20:03:30.368Z,96432.50
2023-03-29T20:05:57.812Z,96436.00
2023-03-29T20:08:24.690Z,96433.81
2023-03-29T20:10:51.565Z,96435.28
2023-03-29T20:13:31.247Z,96431.41
2023-03-29T20:16:03.797Z,96426.09
2023-03-29T20:18:30.646Z,96420.16
2023-03-29T20:20:59.226Z,96423.22
2023-03-29T20:23:30.118Z,96429.94
2023-03-29T20:25:57.518Z,96428.19
2023-03-29T20:28:25.127Z,96422.25
2023-03-29T20:30:53.851Z,96422.66
2023-03-29T20:33:20.311Z,96423.00
2023-03-29T20:35:46.791Z,96414.38
2023-03-29T20:38:13.554Z,96400.59
2023-03-29T20:40:39.962Z,96411.38
2023-03-29T20:43:06.540Z,96418.50
2023-03-29T20:45:42.801Z,96413.53
2023-03-29T20:48:17.358Z,96419.94
2023-03-29T20:50:44.204Z,96418.03
2023-03-29T20:53:18.618Z,96418.25
2023-03-29T20:55:46.119Z,96424.25
2023-03-29T20:58:13.704Z,96429.97
2023-03-29T21:00:40.497Z,96423.34
2023-03-29T21:03:08.179Z,96416.47
2023-03-29T21:05:35.212Z,96417.22
2023-03-29T21:08:05.876Z,96421.19
2023-03-29T21:10:34.882Z,96421.06
2023-03-29T21:13:03.530Z,96423.94
2023-03-29T21:15:33.374Z,96422.50
2023-03-29T21:20:29.845Z,96421.28
2023-03-29T21:22:57.291Z,96413.16
2023-03-29T21:25:24.063Z,96421.72
2023-03-29T21:27:51.067Z,96411.09
2023-03-29T21:30:19.253Z,96403.94
2023-03-29T21:32:45.856Z,96402.19
2023-03-29T21:35:13.603Z,96396.91
2023-03-29T21:37:40.592Z,96407.59
2023-03-29T21:40:08.007Z,96398.41
2023-03-29T21:42:35.635Z,96398.59
2023-03-29T21:45:09.652Z,96401.19
2023-03-29T21:47:36.660Z,96406.97
2023-03-29T21:50:05.342Z,96405.78
2023-03-29T21:52:32.145Z,96403.50
2023-03-29T21:55:01.202Z,96400.81
2023-03-29T21:57:30.055Z,96402.84
2023-03-29T21:59:57.289Z,96393.88
2023-03-29T22:02:24.126Z,96396.59
2023-03-29T22:04:51.001Z,96384.00
2023-03-29T22:07:18.321Z,96378.69
2023-03-29T22:09:49.351Z,96387.06
2023-03-29T22:12:16.166Z,96382.41
2023-03-29T22:14:43.811Z,96377.81
2023-03-29T22:17:12.906Z,96371.81
2023-03-29T22:19:39.945Z,96374.56
2023-03-29T22:22:09.444Z,96370.06
2023-03-29T22:24:36.258Z,96358.72
2023-03-29T22:27:06.942Z,96357.81
2023-03-29T22:29:33.561Z,96357.78
2023-03-29T22:32:00.604Z,96357.44
2023-03-29T22:34:27.195Z,96353.16
2023-03-29T22:36:53.744Z,96350.66
2023-03-29T22:39:21.364Z,96355.44
2023-03-29T22:41:48.204Z,96347.94
2023-03-29T22:44:15.656Z,96348.19
2023-03-29T22:46:42.519Z,96348.25
2023-03-29T22:49:09.781Z,96343.09
2023-03-29T22:51:39.466Z,96338.25
2023-03-29T22:54:06.760Z,96337.63
2023-03-29T22:56:34.036Z,96345.50
2023-03-29T22:59:07.658Z,96337.66
2023-03-29T23:01:34.546Z,96340.13
2023-03-29T23:04:03.945Z,96339.84
2023-03-29T23:06:31.252Z,96344.19
2023-03-29T23:08:58.662Z,96333.47
2023-03-29T23:11:25.451Z,96335.00
2023-03-29T23:13:53.038Z,96335.78
2023-03-29T23:16:19.660Z,96334.41
2023-03-29T23:18:49.466Z,96326.88
2023-03-29T23:21:16.813Z,96324.03
2023-03-29T23:23:45.699Z,96325.56
2023-03-29T23:26:13.230Z,96312.56
2023-03-29T23:28:40.971Z,96306.94
2023-03-29T23:31:14.751Z,96310.75
2023-03-29T23:33:45.180Z,96292.31
2023-03-29T23:36:12.385Z,96288.88
2023-03-29T23:38:39.738Z,96289.25
2023-03-29T23:41:06.952Z,96279.63
2023-03-29T23:43:36.122Z,96291.91
2023-03-29T23:46:03.155Z,96292.38
2023-03-29T23:48:29.967Z,96298.06
2023-03-29T23:50:58.806Z,96287.88
2023-03-29T23:53:25.743Z,96279.16
2023-03-29T23:55:52.609Z,96281.28
2023-03-29T23:58:19.849Z,96271.66
